sensor_id;sensor_type;location;lat;lon;timestamp;pressure;altitude;pressure_sealevel;temperature;humidity
43745;BME280;29359;53.048;8.732;2023-05-10T00:00:25;100787.47;;;15.40;82.38
43745;BME280;29359;53.048;8.732;2023-05-10T00:02:26;100789.28;;;15.40;82.68
43745;BME280;29359;53.048;8.732;2023-05-10T00:04:28;100788.50;;;15.38;82.53
43745;BME280;29359;53.048;8.732;2023-05-10T00:06:29;100779.81;;;15.34;83.00
43745;BME280;29359;53.048;8.732;2023-05-10T00:08:31;100786.13;;;15.32;83.18
43745;BME280;29359;53.048;8.732;2023-05-10T00:10:33;100780.09;;;15.28;82.80
43745;BME280;29359;53.048;8.732;2023-05-10T00:12:34;100782.06;;;15.25;82.87
43745;BME280;29359;53.048;8.732;2023-05-10T00:14:36;100785.00;;;15.19;82.86
43745;BME280;29359;53.048;8.732;2023-05-10T00:16:37;100773.94;;;15.09;83.18
43745;BME280;29359;53.048;8.732;2023-05-10T00:18:39;100774.50;;;14.97;83.37
43745;BME280;29359;53.048;8.732;2023-05-10T00:20:41;100775.03;;;14.86;83.52
43745;BME280;29359;53.048;8.732;2023-05-10T00:22:42;100774.38;;;14.81;82.64
43745;BME280;29359;53.048;8.732;2023-05-10T00:24:44;100780.84;;;14.75;82.26
43745;BME280;29359;53.048;8.732;2023-05-10T00:26:45;100774.84;;;14.70;81.70
43745;BME280;29359;53.048;8.732;2023-05-10T00:28:47;100782.16;;;14.65;81.15
43745;BME280;29359;53.048;8.732;2023-05-10T00:30:48;100778.00;;;14.60;81.16
43745;BME280;29359;53.048;8.732;2023-05-10T00:32:50;100772.03;;;14.55;80.92
43745;BME280;29359;53.048;8.732;2023-05-10T00:34:52;100777.56;;;14.50;80.92
43745;BME280;29359;53.048;8.732;2023-05-10T00:36:54;100767.16;;;14.45;80.42
43745;BME280;29359;53.048;8.732;2023-05-10T00:38:56;100776.06;;;14.44;80.37
43745;BME280;29359;53.048;8.732;2023-05-10T00:40:57;100768.16;;;14.43;80.08
43745;BME280;29359;53.048;8.732;2023-05-10T00:42:59;100772.72;;;14.39;79.59
43745;BME280;29359;53.048;8.732;2023-05-10T00:45:01;100764.94;;;14.35;79.48
43745;BME280;29359;53.048;8.732;2023-05-10T00:47:03;100767.66;;;14.33;79.37
43745;BME280;29359;53.048;8.732;2023-05-10T00:49:05;100763.38;;;14.31;78.75
43745;BME280;29359;53.048;8.732;2023-05-10T00:51:07;100766.00;;;14.31;78.64
43745;BME280;29359;53.048;8.732;2023-05-10T00:53:09;100759.88;;;14.29;78.93
43745;BME280;29359;53.048;8.732;2023-05-10T00:55:11;100767.84;;;14.29;78.42
43745;BME280;29359;53.048;8.732;2023-05-10T00:57:13;100757.38;;;14.26;78.71
43745;BME280;29359;53.048;8.732;2023-05-10T00:59:16;100758.28;;;14.25;78.74
43745;BME280;29359;53.048;8.732;2023-05-10T01:01:19;100758.44;;;14.22;78.63
43745;BME280;29359;53.048;8.732;2023-05-10T01:03:20;100757.72;;;14.18;78.44
43745;BME280;29359;53.048;8.732;2023-05-10T01:05:22;100757.91;;;14.13;78.37
43745;BME280;29359;53.048;8.732;2023-05-10T01:07:24;100754.59;;;14.08;78.19
43745;BME280;29359;53.048;8.732;2023-05-10T01:09:25;100753.00;;;14.04;78.17
43745;BME280;29359;53.048;8.732;2023-05-10T01:11:27;100758.59;;;13.98;78.02
43745;BME280;29359;53.048;8.732;2023-05-10T01:13:34;100755.06;;;13.98;77.67
43745;BME280;29359;53.048;8.732;2023-05-10T01:15:37;100753.41;;;13.95;77.58
43745;BME280;29359;53.048;8.732;2023-05-10T01:17:42;100748.09;;;13.95;78.01
43745;BME280;29359;53.048;8.732;2023-05-10T01:19:45;100755.22;;;13.95;78.17
43745;BME280;29359;53.048;8.732;2023-05-10T01:21:59;100749.09;;;13.93;77.63
43745;BME280;29359;53.048;8.732;2023-05-10T01:26:54;100746.94;;;13.80;78.12
43745;BME280;29359;53.048;8.732;2023-05-10T01:29:14;100754.97;;;13.79;78.55
43745;BME280;29359;53.048;8.732;2023-05-10T01:33:47;100746.09;;;13.80;78.24
43745;BME280;29359;53.048;8.732;2023-05-10T01:40:26;100742.31;;;13.65;78.18
43745;BME280;29359;53.048;8.732;2023-05-10T01:42:38;100750.31;;;13.64;77.84
43745;BME280;29359;53.048;8.732;2023-05-10T01:47:04;100747.88;;;13.59;78.25
43745;BME280;29359;53.048;8.732;2023-05-10T01:49:29;100744.28;;;13.60;77.81
43745;BME280;29359;53.048;8.732;2023-05-10T01:51:40;100739.06;;;13.59;77.93
43745;BME280;29359;53.048;8.732;2023-05-10T01:53:44;100742.50;;;13.61;77.72
43745;BME280;29359;53.048;8.732;2023-05-10T01:55:50;100745.22;;;13.59;78.03
43745;BME280;29359;53.048;8.732;2023-05-10T01:58:07;100738.19;;;13.58;77.88
43745;BME280;29359;53.048;8.732;2023-05-10T02:00:10;100732.16;;;13.55;77.71
43745;BME280;29359;53.048;8.732;2023-05-10T02:02:14;100737.53;;;13.53;78.00
43745;BME280;29359;53.048;8.732;2023-05-10T02:04:17;100737.59;;;13.51;77.90
43745;BME280;29359;53.048;8.732;2023-05-10T02:06:22;100739.31;;;13.52;77.97
43745;BME280;29359;53.048;8.732;2023-05-10T02:08:25;100744.69;;;13.51;77.61
43745;BME280;29359;53.048;8.732;2023-05-10T02:10:28;100738.56;;;13.49;78.13
43745;BME280;29359;53.048;8.732;2023-05-10T02:12:32;100739.44;;;13.49;77.71
43745;BME280;29359;53.048;8.732;2023-05-10T02:14:36;100732.41;;;13.48;77.93
43745;BME280;29359;53.048;8.732;2023-05-10T02:16:39;100732.47;;;13.47;78.03
43745;BME280;29359;53.048;8.732;2023-05-10T02:18:42;100736.06;;;13.46;78.02
43745;BME280;29359;53.048;8.732;2023-05-10T02:20:46;100737.00;;;13.43;78.48
43745;BME280;29359;53.048;8.732;2023-05-10T02:22:50;100741.59;;;13.40;77.67
43745;BME280;29359;53.048;8.732;2023-05-10T02:24:58;100737.34;;;13.36;77.48
43745;BME280;29359;53.048;8.732;2023-05-10T02:27:02;100744.69;;;13.29;77.47
43745;BME280;29359;53.048;8.732;2023-05-10T02:29:05;100741.34;;;13.24;77.81
43745;BME280;29359;53.048;8.732;2023-05-10T02:31:08;100741.41;;;13.23;78.05
43745;BME280;29359;53.048;8.732;2023-05-10T02:33:12;100739.75;;;13.20;77.62
43745;BME280;29359;53.048;8.732;2023-05-10T02:35:14;100738.97;;;13.18;77.55
43745;BME280;29359;53.048;8.732;2023-05-10T02:37:19;100740.84;;;13.14;77.95
43745;BME280;29359;53.048;8.732;2023-05-10T02:39:21;100738.25;;;13.13;77.94
43745;BME280;29359;53.048;8.732;2023-05-10T02:41:23;100743.78;;;13.07;77.90
43745;BME280;29359;53.048;8.732;2023-05-10T02:43:28;100744.03;;;13.01;78.53
43745;BME280;29359;53.048;8.732;2023-05-10T02:45:32;100737.91;;;12.99;78.69
43745;BME280;29359;53.048;8.732;2023-05-10T02:47:35;100745.06;;;12.97;78.54
43745;BME280;29359;53.048;8.732;2023-05-10T02:49:37;100745.97;;;12.96;78.12
43745;BME280;29359;53.048;8.732;2023-05-10T02:51:42;100738.97;;;12.95;78.18
43745;BME280;29359;53.048;8.732;2023-05-10T02:53:46;100744.25;;;12.95;78.29
43745;BME280;29359;53.048;8.732;2023-05-10T02:55:50;100740.06;;;12.89;78.25
43745;BME280;29359;53.048;8.732;2023-05-10T02:57:59;100743.81;;;12.83;78.74
43745;BME280;29359;53.048;8.732;2023-05-10T03:00:02;100739.56;;;12.79;79.17
43745;BME280;29359;53.048;8.732;2023-05-10T03:02:04;100739.56;;;12.79;78.83
43745;BME280;29359;53.048;8.732;2023-05-10T03:04:06;100739.56;;;12.79;79.15
43745;BME280;29359;53.048;8.732;2023-05-10T03:06:08;100740.44;;;12.80;78.91
43745;BME280;29359;53.048;8.732;2023-05-10T03:08:11;100743.00;;;12.81;79.12
43745;BME280;29359;53.048;8.732;2023-05-10T03:10:12;100740.25;;;12.84;78.80
43745;BME280;29359;53.048;8.732;2023-05-10T03:12:44;100737.53;;;12.86;78.68
43745;BME280;29359;53.048;8.732;2023-05-10T03:15:11;100733.97;;;12.87;79.00
43745;BME280;29359;53.048;8.732;2023-05-10T03:17:25;100738.34;;;12.88;78.73
43745;BME280;29359;53.048;8.732;2023-05-10T03:19:35;100732.22;;;12.86;78.57
43745;BME280;29359;53.048;8.732;2023-05-10T03:21:44;100736.72;;;12.84;78.56
43745;BME280;29359;53.048;8.732;2023-05-10T03:25:57;100741.59;;;12.73;79.74
43745;BME280;29359;53.048;8.732;2023-05-10T03:28:01;100734.44;;;12.75;79.25
43745;BME280;29359;53.048;8.732;2023-05-10T03:30:04;100738.81;;;12.76;78.99
43745;BME280;29359;53.048;8.732;2023-05-10T03:32:06;100739.69;;;12.76;79.10
43745;BME280;29359;53.048;8.732;2023-05-10T03:34:08;100736.09;;;12.77;79.13
43745;BME280;29359;53.048;8.732;2023-05-10T03:36:09;100734.31;;;12.78;79.04
43745;BME280;29359;53.048;8.732;2023-05-10T03:38:12;100729.09;;;12.76;78.84
43745;BME280;29359;53.048;8.732;2023-05-10T03:40:14;100736.16;;;12.76;79.02
43745;BME280;29359;53.048;8.732;2023-05-10T03:42:16;100735.31;;;12.75;79.04
43745;BME280;29359;53.048;8.732;2023-05-10T03:44:19;100734.50;;;12.73;78.96
43745;BME280;29359;53.048;8.732;2023-05-10T03:46:20;100734.63;;;12.70;79.05
43745;BME280;29359;53.048;8.732;2023-05-10T03:48:22;100736.47;;;12.68;79.32
43745;BME280;29359;53.048;8.732;2023-05-10T03:50:24;100735.53;;;12.69;79.06
43745;BME280;29359;53.048;8.732;2023-05-10T03:52:25;100738.19;;;12.69;79.06
43745;BME280;29359;53.048;8.732;2023-05-10T03:54:27;100727.59;;;12.69;78.98
43745;BME280;29359;53.048;8.732;2023-05-10T03:56:28;100725.81;;;12.70;78.66
43745;BME280;29359;53.048;8.732;2023-05-10T03:58:30;100731.13;;;12.70;78.92
43745;BME280;29359;53.048;8.732;2023-05-10T04:00:31;100732.78;;;12.72;78.96
43745;BME280;29359;53.048;8.732;2023-05-10T04:02:33;100732.84;;;12.71;78.62
43745;BME280;29359;53.048;8.732;2023-05-10T04:04:35;100726.69;;;12.70;78.77
43745;BME280;29359;53.048;8.732;2023-05-10T04:06:37;100723.16;;;12.70;78.79
43745;BME280;29359;53.048;8.732;2023-05-10T04:08:39;100724.94;;;12.69;78.89
43745;BME280;29359;53.048;8.732;2023-05-10T04:10:40;100728.66;;;12.65;79.90
43745;BME280;29359;53.048;8.732;2023-05-10T04:12:42;100734.19;;;12.59;80.11
43745;BME280;29359;53.048;8.732;2023-05-10T04:14:43;100737.84;;;12.55;80.50
43745;BME280;29359;53.048;8.732;2023-05-10T04:16:45;100736.22;;;12.51;80.76
43745;BME280;29359;53.048;8.732;2023-05-10T04:18:47;100730.94;;;12.51;80.69
43745;BME280;29359;53.048;8.732;2023-05-10T04:20:49;100729.94;;;12.53;80.40
43745;BME280;29359;53.048;8.732;2023-05-10T04:22:50;100729.88;;;12.55;79.76
43745;BME280;29359;53.048;8.732;2023-05-10T04:24:52;100733.34;;;12.57;79.66
43745;BME280;29359;53.048;8.732;2023-05-10T04:26:54;100728.00;;;12.58;79.81
43745;BME280;29359;53.048;8.732;2023-05-10T04:28:58;100732.38;;;12.60;79.63
43745;BME280;29359;53.048;8.732;2023-05-10T04:31:04;100734.97;;;12.61;79.25
43745;BME280;29359;53.048;8.732;2023-05-10T04:33:05;100737.69;;;12.60;79.33
43745;BME280;29359;53.048;8.732;2023-05-10T04:35:07;100735.97;;;12.58;79.31
43745;BME280;29359;53.048;8.732;2023-05-10T04:37:11;100734.22;;;12.57;79.42
43745;BME280;29359;53.048;8.732;2023-05-10T04:39:13;100745.78;;;12.55;79.61
43745;BME280;29359;53.048;8.732;2023-05-10T04:41:15;100744.97;;;12.53;79.88
43745;BME280;29359;53.048;8.732;2023-05-10T04:43:16;100750.50;;;12.47;80.80
43745;BME280;29359;53.048;8.732;2023-05-10T04:45:18;100745.50;;;12.39;81.60
43745;BME280;29359;53.048;8.732;2023-05-10T04:47:19;100752.84;;;12.31;82.83
43745;BME280;29359;53.048;8.732;2023-05-10T04:49:21;100768.22;;;12.21;85.51
43745;BME280;29359;53.048;8.732;2023-05-10T04:51:23;100774.59;;;12.16;87.11
43745;BME280;29359;53.048;8.732;2023-05-10T04:53:24;100772.06;;;12.11;88.39
43745;BME280;29359;53.048;8.732;2023-05-10T04:55:25;100769.50;;;12.10;88.59
43745;BME280;29359;53.048;8.732;2023-05-10T04:57:28;100774.72;;;12.11;87.68
43745;BME280;29359;53.048;8.732;2023-05-10T04:59:29;100767.59;;;12.13;85.84
43745;BME280;29359;53.048;8.732;2023-05-10T05:01:31;100771.84;;;12.19;84.77
43745;BME280;29359;53.048;8.732;2023-05-10T05:03:32;100773.00;;;12.10;85.58
43745;BME280;29359;53.048;8.732;2023-05-10T05:05:34;100781.38;;;11.98;86.72
43745;BME280;29359;53.048;8.732;2023-05-10T05:07:36;100776.13;;;11.97;87.50
43745;BME280;29359;53.048;8.732;2023-05-10T05:09:38;100767.22;;;11.99;87.80
43745;BME280;29359;53.048;8.732;2023-05-10T05:11:40;100772.47;;;12.01;87.14
43745;BME280;29359;53.048;8.732;2023-05-10T05:13:41;100773.31;;;12.01;86.98
43745;BME280;29359;53.048;8.732;2023-05-10T05:15:43;100781.31;;;12.00;87.13
43745;BME280;29359;53.048;8.732;2023-05-10T05:17:44;100779.47;;;12.02;86.67
43745;BME280;29359;53.048;8.732;2023-05-10T05:19:46;100789.19;;;12.01;86.57
43745;BME280;29359;53.048;8.732;2023-05-10T05:21:47;100798.00;;;12.02;86.16
43745;BME280;29359;53.048;8.732;2023-05-10T05:23:49;100784.66;;;12.05;85.13
43745;BME280;29359;53.048;8.732;2023-05-10T05:25:52;100787.16;;;12.09;84.76
43745;BME280;29359;53.048;8.732;2023-05-10T05:27:53;100791.53;;;12.10;83.94
43745;BME280;29359;53.048;8.732;2023-05-10T05:29:56;100791.63;;;12.07;85.35
43745;BME280;29359;53.048;8.732;2023-05-10T05:31:57;100793.69;;;11.99;86.37
43745;BME280;29359;53.048;8.732;2023-05-10T05:33:59;100786.88;;;11.92;87.82
43745;BME280;29359;53.048;8.732;2023-05-10T05:36:02;100785.25;;;11.88;88.90
43745;BME280;29359;53.048;8.732;2023-05-10T05:38:04;100786.13;;;11.88;89.51
43745;BME280;29359;53.048;8.732;2023-05-10T05:40:06;100787.75;;;11.92;89.41
43745;BME280;29359;53.048;8.732;2023-05-10T05:42:08;100792.97;;;11.94;89.95
43745;BME280;29359;53.048;8.732;2023-05-10T05:44:10;100794.81;;;11.92;90.83
43745;BME280;29359;53.048;8.732;2023-05-10T05:46:12;100790.28;;;11.95;89.84
43745;BME280;29359;53.048;8.732;2023-05-10T05:48:13;100797.09;;;12.03;88.29
43745;BME280;29359;53.048;8.732;2023-05-10T05:50:15;100800.38;;;12.09;86.50
43745;BME280;29359;53.048;8.732;2023-05-10T05:52:16;100806.34;;;12.16;85.41
43745;BME280;29359;53.048;8.732;2023-05-10T05:54:19;100802.69;;;12.20;84.69
43745;BME280;29359;53.048;8.732;2023-05-10T05:56:20;100813.16;;;12.23;84.60
43745;BME280;29359;53.048;8.732;2023-05-10T05:58:25;100812.28;;;12.22;85.90
43745;BME280;29359;53.048;8.732;2023-05-10T06:00:27;100820.41;;;12.18;86.08
43745;BME280;29359;53.048;8.732;2023-05-10T06:02:29;100824.78;;;12.19;85.92
43745;BME280;29359;53.048;8.732;2023-05-10T06:04:30;100826.56;;;12.18;85.34
43745;BME280;29359;53.048;8.732;2023-05-10T06:06:32;100822.22;;;12.16;86.82
43745;BME280;29359;53.048;8.732;2023-05-10T06:08:33;100825.81;;;12.13;87.97
43745;BME280;29359;53.048;8.732;2023-05-10T06:10:36;100823.16;;;12.13;87.93
43745;BME280;29359;53.048;8.732;2023-05-10T06:12:37;100824.81;;;12.17;87.53
43745;BME280;29359;53.048;8.732;2023-05-10T06:14:39;100826.50;;;12.20;87.44
43745;BME280;29359;53.048;8.732;2023-05-10T06:16:40;100822.00;;;12.22;87.17
43745;BME280;29359;53.048;8.732;2023-05-10T06:18:42;100824.50;;;12.26;86.79
43745;BME280;29359;53.048;8.732;2023-05-10T06:20:43;100831.41;;;12.31;86.14
43745;BME280;29359;53.048;8.732;2023-05-10T06:22:45;100827.72;;;12.35;85.89
43745;BME280;29359;53.048;8.732;2023-05-10T06:24:46;100823.19;;;12.38;86.34
43745;BME280;29359;53.048;8.732;2023-05-10T06:26:48;100830.09;;;12.42;86.09
43745;BME280;29359;53.048;8.732;2023-05-10T06:28:51;100840.53;;;12.47;86.05
43745;BME280;29359;53.048;8.732;2023-05-10T06:30:52;100838.53;;;12.53;85.33
43745;BME280;29359;53.048;8.732;2023-05-10T06:32:54;100847.22;;;12.57;85.33
43745;BME280;29359;53.048;8.732;2023-05-10T06:34:56;100846.22;;;12.61;85.13
43745;BME280;29359;53.048;8.732;2023-05-10T06:36:57;100841.66;;;12.65;84.17
43745;BME280;29359;53.048;8.732;2023-05-10T06:38:59;100851.22;;;12.69;83.32
43745;BME280;29359;53.048;8.732;2023-05-10T06:41:00;100849.34;;;12.72;83.82
43745;BME280;29359;53.048;8.732;2023-05-10T06:43:02;100849.38;;;12.71;84.57
43745;BME280;29359;53.048;8.732;2023-05-10T06:45:04;100851.19;;;12.70;85.25
43745;BME280;29359;53.048;8.732;2023-05-10T06:47:06;100848.47;;;12.72;85.42
43745;BME280;29359;53.048;8.732;2023-05-10T06:49:08;100851.94;;;12.74;85.82
43745;BME280;29359;53.048;8.732;2023-05-10T06:51:09;100847.38;;;12.77;86.17
43745;BME280;29359;53.048;8.732;2023-05-10T06:53:11;100857.91;;;12.79;86.44
43745;BME280;29359;53.048;8.732;2023-05-10T06:55:13;100856.75;;;12.86;86.18
43745;BME280;29359;53.048;8.732;2023-05-10T06:57:15;100868.06;;;12.91;85.83
43745;BME280;29359;53.048;8.732;2023-05-10T06:59:32;100864.19;;;13.00;85.24
43745;BME280;29359;53.048;8.732;2023-05-10T07:01:33;100860.41;;;13.07;85.74
43745;BME280;29359;53.048;8.732;2023-05-10T07:03:35;100862.78;;;13.14;85.92
43745;BME280;29359;53.048;8.732;2023-05-10T07:05:36;100872.31;;;13.20;87.69
43745;BME280;29359;53.048;8.732;2023-05-10T07:07:38;100870.34;;;13.25;88.76
43745;BME280;29359;53.048;8.732;2023-05-10T07:09:40;100872.75;;;13.31;91.48
43745;BME280;29359;53.048;8.732;2023-05-10T07:11:41;100880.59;;;13.34;93.29
43745;BME280;29359;53.048;8.732;2023-05-10T07:13:43;100882.19;;;13.38;95.33
43745;BME280;29359;53.048;8.732;2023-05-10T07:15:45;100882.00;;;13.43;96.88
43745;BME280;29359;53.048;8.732;2023-05-10T07:17:47;100882.78;;;13.46;98.27
43745;BME280;29359;53.048;8.732;2023-05-10T07:19:48;100885.38;;;13.48;99.36
43745;BME280;29359;53.048;8.732;2023-05-10T07:21:50;100893.34;;;13.48;100.00
43745;BME280;29359;53.048;8.732;2023-05-10T07:23:52;100895.13;;;13.47;100.00
43745;BME280;29359;53.048;8.732;2023-05-10T07:25:53;100895.94;;;13.49;100.00
43745;BME280;29359;53.048;8.732;2023-05-10T07:27:55;100900.31;;;13.50;100.00
43745;BME280;29359;53.048;8.732;2023-05-10T07:29:56;100899.44;;;13.50;100.00
43745;BME280;29359;53.048;8.732;2023-05-10T07:31:58;100900.38;;;13.49;100.00
43745;BME280;29359;53.048;8.732;2023-05-10T07:33:59;100897.59;;;13.52;100.00
43745;BME280;29359;53.048;8.732;2023-05-10T07:36:01;100909.88;;;13.55;100.00
43745;BME280;29359;53.048;8.732;2023-05-10T07:38:02;100909.06;;;13.52;100.00
43745;BME280;29359;53.048;8.732;2023-05-10T07:40:04;100902.84;;;13.54;100.00
43745;BME280;29359;53.048;8.732;2023-05-10T07:42:06;100910.66;;;13.57;100.00
43745;BME280;29359;53.048;8.732;2023-05-10T07:44:08;100912.47;;;13.56;100.00
43745;BME280;29359;53.048;8.732;2023-05-10T07:46:09;100910.66;;;13.57;100.00
43745;BME280;29359;53.048;8.732;2023-05-10T07:48:12;100906.09;;;13.60;100.00
43745;BME280;29359;53.048;8.732;2023-05-10T07:50:13;100901.59;;;13.62;100.00
43745;BME280;29359;53.048;8.732;2023-05-10T07:52:15;100909.50;;;13.64;100.00
43745;BME280;29359;53.048;8.732;2023-05-10T07:54:16;100911.22;;;13.65;100.00
43745;BME280;29359;53.048;8.732;2023-05-10T07:56:27;100917.28;;;13.68;100.00
43745;BME280;29359;53.048;8.732;2023-05-10T07:58:30;100916.22;;;13.72;100.00
43745;BME280;29359;53.048;8.732;2023-05-10T08:00:32;100917.88;;;13.75;100.00
43745;BME280;29359;53.048;8.732;2023-05-10T08:02:35;100917.88;;;13.75;100.00
43745;BME280;29359;53.048;8.732;2023-05-10T08:04:36;100919.44;;;13.80;100.00
43745;BME280;29359;53.048;8.732;2023-05-10T08:06:39;100925.31;;;13.89;100.00
43745;BME280;29359;53.048;8.732;2023-05-10T08:08:41;100927.53;;;13.99;100.00
43745;BME280;29359;53.048;8.732;2023-05-10T08:10:43;100925.44;;;14.07;100.00
43745;BME280;29359;53.048;8.732;2023-05-10T08:12:44;100928.69;;;14.14;100.00
43745;BME280;29359;53.048;8.732;2023-05-10T08:14:46;100931.09;;;14.20;100.00
43745;BME280;29359;53.048;8.732;2023-05-10T08:16:47;100933.63;;;14.23;100.00
43745;BME280;29359;53.048;8.732;2023-05-10T08:18:49;100929.84;;;14.29;100.00
43745;BME280;29359;53.048;8.732;2023-05-10T08:20:52;100935.84;;;14.34;100.00
43745;BME280;29359;53.048;8.732;2023-05-10T08:22:53;100933.44;;;14.28;100.00
43745;BME280;29359;53.048;8.732;2023-05-10T08:24:55;100935.16;;;14.29;100.00
43745;BME280;29359;53.048;8.732;2023-05-10T08:26:56;100940.47;;;14.29;100.00
43745;BME280;29359;53.048;8.732;2023-05-10T08:28:58;100937.72;;;14.32;100.00
43745;BME280;29359;53.048;8.732;2023-05-10T08:31:00;100943.69;;;14.37;100.00
43745;BME280;29359;53.048;8.732;2023-05-10T08:33:01;100943.06;;;14.30;100.00
43745;BME280;29359;53.048;8.732;2023-05-10T08:35:03;100942.25;;;14.28;99.86
43745;BME280;29359;53.048;8.732;2023-05-10T08:37:04;100943.97;;;14.29;99.56
43745;BME280;29359;53.048;8.732;2023-05-10T08:39:06;100946.59;;;14.31;98.91
43745;BME280;29359;53.048;8.732;2023-05-10T08:41:20;100946.28;;;14.38;99.07
43745;BME280;29359;53.048;8.732;2023-05-10T08:43:23;100942.53;;;14.44;98.68
43745;BME280;29359;53.048;8.732;2023-05-10T08:45:28;100947.84;;;14.44;97.45
43745;BME280;29359;53.048;8.732;2023-05-10T08:47:36;100949.31;;;14.51;97.27
43745;BME280;29359;53.048;8.732;2023-05-10T08:49:39;100947.25;;;14.58;96.33
43745;BME280;29359;53.048;8.732;2023-05-10T08:51:44;100944.41;;;14.62;95.63
43745;BME280;29359;53.048;8.732;2023-05-10T08:53:49;100953.97;;;14.66;95.07
43745;BME280;29359;53.048;8.732;2023-05-10T08:55:51;100956.09;;;14.79;95.40
43745;BME280;29359;53.048;8.732;2023-05-10T08:57:53;100956.38;;;14.93;95.47
43745;BME280;29359;53.048;8.732;2023-05-10T08:59:54;100954.34;;;14.98;94.62
43745;BME280;29359;53.048;8.732;2023-05-10T09:01:58;100959.69;;;14.98;93.39
43745;BME280;29359;53.048;8.732;2023-05-10T09:04:00;100956.09;;;14.99;92.55
43745;BME280;29359;53.048;8.732;2023-05-10T09:06:02;100966.50;;;15.03;92.31
43745;BME280;29359;53.048;8.732;2023-05-10T09:08:04;100977.75;;;15.10;92.39
43745;BME280;29359;53.048;8.732;2023-05-10T09:10:07;100984.13;;;15.06;90.94
43745;BME280;29359;53.048;8.732;2023-05-10T09:12:09;100978.00;;;15.04;90.90
43745;BME280;29359;53.048;8.732;2023-05-10T09:14:13;100982.34;;;15.06;91.70
43745;BME280;29359;53.048;8.732;2023-05-10T09:16:16;100978.00;;;15.04;91.78
43745;BME280;29359;53.048;8.732;2023-05-10T09:18:22;100985.75;;;14.90;90.28
43745;BME280;29359;53.048;8.732;2023-05-10T09:20:26;100985.34;;;14.79;90.73
43745;BME280;29359;53.048;8.732;2023-05-10T09:22:28;100999.56;;;14.77;91.83
43745;BME280;29359;53.048;8.732;2023-05-10T09:24:30;100990.59;;;14.80;92.40
43745;BME280;29359;53.048;8.732;2023-05-10T09:26:32;100986.00;;;14.84;91.82
43745;BME280;29359;53.048;8.732;2023-05-10T09:28:53;100994.72;;;14.87;91.93
43745;BME280;29359;53.048;8.732;2023-05-10T09:30:54;100992.00;;;14.89;91.60
43745;BME280;29359;53.048;8.732;2023-05-10T09:32:58;100991.91;;;14.90;91.72
43745;BME280;29359;53.048;8.732;2023-05-10T09:35:15;100993.78;;;14.88;92.12
43745;BME280;29359;53.048;8.732;2023-05-10T09:37:17;100996.50;;;14.87;92.62
43745;BME280;29359;53.048;8.732;2023-05-10T09:39:19;100999.63;;;14.96;93.04
43745;BME280;29359;53.048;8.732;2023-05-10T09:41:22;100998.94;;;15.12;92.81
43745;BME280;29359;53.048;8.732;2023-05-10T09:43:24;101000.44;;;15.19;92.59
43745;BME280;29359;53.048;8.732;2023-05-10T09:45:28;100997.50;;;15.25;92.12
43745;BME280;29359;53.048;8.732;2023-05-10T09:47:35;100999.66;;;15.35;91.73
43745;BME280;29359;53.048;8.732;2023-05-10T09:49:37;101004.28;;;15.51;92.15
43745;BME280;29359;53.048;8.732;2023-05-10T09:51:38;101006.53;;;15.60;91.37
43745;BME280;29359;53.048;8.732;2023-05-10T09:53:40;101010.53;;;15.70;90.68
43745;BME280;29359;53.048;8.732;2023-05-10T09:55:45;101003.63;;;15.85;90.51
43745;BME280;29359;53.048;8.732;2023-05-10T09:57:48;100998.00;;;15.91;89.16
43745;BME280;29359;53.048;8.732;2023-05-10T09:59:50;100995.63;;;15.85;88.48
43745;BME280;29359;53.048;8.732;2023-05-10T10:01:53;101016.72;;;15.70;88.52
43745;BME280;29359;53.048;8.732;2023-05-10T10:03:57;101016.66;;;15.52;87.74
43745;BME280;29359;53.048;8.732;2023-05-10T10:05:59;101021.44;;;15.25;88.59
43745;BME280;29359;53.048;8.732;2023-05-10T10:08:03;101024.47;;;14.95;89.49
43745;BME280;29359;53.048;8.732;2023-05-10T10:10:05;101021.19;;;14.68;90.73
43745;BME280;29359;53.048;8.732;2023-05-10T10:12:12;101028.94;;;14.53;93.26
43745;BME280;29359;53.048;8.732;2023-05-10T10:14:14;101025.69;;;14.46;94.70
43745;BME280;29359;53.048;8.732;2023-05-10T10:16:16;101026.28;;;14.53;96.08
43745;BME280;29359;53.048;8.732;2023-05-10T10:18:17;101035.47;;;14.66;97.54
43745;BME280;29359;53.048;8.732;2023-05-10T10:20:21;101032.13;;;14.83;98.62
43745;BME280;29359;53.048;8.732;2023-05-10T10:22:23;101027.53;;;15.06;98.85
43745;BME280;29359;53.048;8.732;2023-05-10T10:24:24;101030.22;;;15.27;98.87
43745;BME280;29359;53.048;8.732;2023-05-10T10:26:26;101023.56;;;15.56;98.25
43745;BME280;29359;53.048;8.732;2023-05-10T10:28:46;101025.13;;;15.80;97.09
43745;BME280;29359;53.048;8.732;2023-05-10T10:30:51;101029.09;;;15.90;94.86
43745;BME280;29359;53.048;8.732;2023-05-10T10:32:59;101026.78;;;16.01;93.64
43745;BME280;29359;53.048;8.732;2023-05-10T10:35:10;101029.38;;;16.22;93.58
43745;BME280;29359;53.048;8.732;2023-05-10T10:37:12;101023.28;;;16.37;91.82
43745;BME280;29359;53.048;8.732;2023-05-10T10:39:14;101024.50;;;16.49;91.23
43745;BME280;29359;53.048;8.732;2023-05-10T10:41:31;101029.66;;;16.71;90.59
43745;BME280;29359;53.048;8.732;2023-05-10T10:43:33;101034.97;;;16.88;89.07
43745;BME280;29359;53.048;8.732;2023-05-10T10:45:39;101021.03;;;16.83;85.36
43745;BME280;29359;53.048;8.732;2023-05-10T10:47:42;101026.03;;;16.72;84.51
43745;BME280;29359;53.048;8.732;2023-05-10T10:49:49;101026.78;;;16.56;84.19
43745;BME280;29359;53.048;8.732;2023-05-10T10:52:20;101031.91;;;16.42;85.15
43745;BME280;29359;53.048;8.732;2023-05-10T10:54:28;101022.88;;;16.27;84.49
43745;BME280;29359;53.048;8.732;2023-05-10T10:56:30;101033.75;;;16.23;85.54